createdAt,value
2023-02-24T00:01:25.094Z,1.40
2023-02-24T00:03:54.076Z,1.13
2023-02-24T00:06:22.329Z,0.83
2023-02-24T00:08:50.662Z,1.37
2023-02-24T00:11:20.603Z,1.13
2023-02-24T00:13:49.344Z,1.43
2023-02-24T00:16:18.279Z,1.57
2023-02-24T00:18:46.809Z,1.17
2023-02-24T00:21:16.024Z,1.23
2023-02-24T00:23:46.383Z,1.10
2023-02-24T00:26:15.068Z,1.30
2023-02-24T00:28:44.740Z,1.40
2023-02-24T00:31:15.311Z,1.23
2023-02-24T00:33:43.720Z,1.07
2023-02-24T00:36:12.565Z,1.00
2023-02-24T00:38:40.926Z,1.03
2023-02-24T00:41:12.500Z,1.13
2023-02-24T00:43:40.777Z,1.10
2023-02-24T00:46:12.077Z,1.20
2023-02-24T00:48:41.687Z,1.57
2023-02-24T00:51:11.252Z,1.40
2023-02-24T00:53:39.843Z,0.90
2023-02-24T00:56:08.334Z,0.80
2023-02-24T00:58:37.068Z,0.90
2023-02-24T01:01:09.105Z,1.10
2023-02-24T01:03:38.852Z,1.07
2023-02-24T01:06:07.554Z,1.27
2023-02-24T01:08:38.592Z,0.80
2023-02-24T01:11:24.895Z,1.13
2023-02-24T01:13:53.326Z,1.33
2023-02-24T01:16:21.764Z,0.93
2023-02-24T01:18:51.948Z,1.10
2023-02-24T01:21:20.947Z,0.90
2023-02-24T01:23:49.663Z,0.70
2023-02-24T01:26:18.237Z,1.17
2023-02-24T01:28:48.122Z,0.70
2023-02-24T01:31:18.402Z,0.90
2023-02-24T01:33:46.877Z,0.90
2023-02-24T01:36:17.078Z,0.83
2023-02-24T01:38:45.633Z,1.30
2023-02-24T01:41:16.850Z,0.83
2023-02-24T01:43:58.795Z,0.70
2023-02-24T01:46:27.506Z,0.97
2023-02-24T01:48:56.718Z,0.90
2023-02-24T01:51:27.205Z,0.80
2023-02-24T01:53:56.081Z,0.93
2023-02-24T01:56:24.473Z,0.93
2023-02-24T01:58:52.834Z,0.70
2023-02-24T02:01:21.477Z,0.80
2023-02-24T02:03:49.994Z,0.83
2023-02-24T02:06:18.810Z,0.90
2023-02-24T02:08:48.519Z,0.60
2023-02-24T02:11:23.135Z,1.00
2023-02-24T02:13:52.382Z,0.50
2023-02-24T02:16:33.364Z,0.90
2023-02-24T02:19:04.498Z,1.00
2023-02-24T02:21:56.753Z,0.80
2023-02-24T02:24:38.038Z,0.70
2023-02-24T02:27:10.545Z,0.90
2023-02-24T02:29:51.071Z,0.67
2023-02-24T02:32:24.075Z,0.67
2023-02-24T02:34:54.034Z,0.60
2023-02-24T02:37:24.654Z,0.60
2023-02-24T02:39:58.804Z,0.87
2023-02-24T02:42:27.900Z,0.57
2023-02-24T02:44:58.398Z,0.80
2023-02-24T02:47:28.117Z,0.37
2023-02-24T02:49:58.465Z,0.50
2023-02-24T02:52:27.621Z,0.80
2023-02-24T02:54:56.751Z,0.57
2023-02-24T02:57:25.477Z,0.80
2023-02-24T02:59:54.591Z,1.13
2023-02-24T03:02:28.092Z,0.50
2023-02-24T03:04:58.532Z,1.63
2023-02-24T03:07:31.136Z,0.70
2023-02-24T03:10:01.302Z,0.73
2023-02-24T03:12:30.152Z,0.80
2023-02-24T03:14:59.207Z,0.50
2023-02-24T03:17:28.122Z,0.70
2023-02-24T03:20:00.572Z,0.60
2023-02-24T03:22:29.950Z,0.43
2023-02-24T03:24:58.599Z,0.43
2023-02-24T03:27:28.401Z,0.50
2023-02-24T03:29:58.450Z,0.57
2023-02-24T03:32:27.028Z,0.80
2023-02-24T03:34:56.846Z,0.67
2023-02-24T03:37:26.939Z,0.60
2023-02-24T03:39:55.563Z,0.47
2023-02-24T03:42:23.882Z,0.40
2023-02-24T03:44:52.202Z,0.63
2023-02-24T03:47:20.810Z,0.70
2023-02-24T03:49:50.239Z,0.70
2023-02-24T03:52:21.748Z,0.50
2023-02-24T03:54:54.488Z,0.33
2023-02-24T03:57:25.353Z,0.40
2023-02-24T03:59:56.183Z,0.60
2023-02-24T04:02:25.192Z,0.40
2023-02-24T04:04:54.491Z,0.50
2023-02-24T04:07:26.446Z,0.40
2023-02-24T04:09:59.277Z,0.40
2023-02-24T04:12:28.721Z,0.43
2023-02-24T04:14:59.715Z,0.43
2023-02-24T04:17:28.446Z,0.50
2023-02-24T04:19:57.743Z,0.50
2023-02-24T04:22:26.869Z,0.47
2023-02-24T04:24:58.145Z,0.50
2023-02-24T04:27:28.192Z,0.70
2023-02-24T04:29:56.713Z,0.40
2023-02-24T04:32:26.124Z,0.50
2023-02-24T04:34:54.895Z,0.40
2023-02-24T04:37:23.359Z,0.30
2023-02-24T04:39:51.940Z,0.50
2023-02-24T04:42:22.308Z,0.27
2023-02-24T04:44:50.656Z,0.50
2023-02-24T04:47:18.963Z,0.43
2023-02-24T04:49:47.247Z,0.40
2023-02-24T04:52:16.151Z,0.60
2023-02-24T04:54:44.806Z,0.37
2023-02-24T04:57:13.092Z,0.33
2023-02-24T04:59:42.738Z,0.50
2023-02-24T05:02:11.368Z,0.20
2023-02-24T05:04:39.758Z,0.43
2023-02-24T05:07:08.034Z,0.40
2023-02-24T05:09:36.306Z,0.67
2023-02-24T05:12:05.225Z,0.20
2023-02-24T05:14:33.523Z,0.80
2023-02-24T05:17:03.233Z,0.50
2023-02-24T05:19:49.323Z,0.50
2023-02-24T05:22:17.810Z,0.40
2023-02-24T05:24:48.004Z,0.60
2023-02-24T05:27:17.334Z,0.60
2023-02-24T05:29:45.827Z,0.73
2023-02-24T05:32:16.816Z,1.17
2023-02-24T05:34:45.555Z,0.70
2023-02-24T05:37:16.516Z,1.00
2023-02-24T05:39:44.834Z,1.10
2023-02-24T05:42:13.103Z,1.00
2023-02-24T05:44:41.810Z,1.00
2023-02-24T05:47:10.507Z,0.97
2023-02-24T05:49:43.808Z,1.10
2023-02-24T05:52:14.166Z,1.17
2023-02-24T05:54:42.975Z,1.73
2023-02-24T05:57:12.822Z,1.30
2023-02-24T05:59:41.433Z,0.97
2023-02-24T06:02:11.140Z,0.80
2023-02-24T06:04:45.892Z,0.80
2023-02-24T06:07:18.873Z,1.00
2023-02-24T06:09:50.034Z,0.90
2023-02-24T06:12:18.830Z,1.10
2023-02-24T06:14:47.179Z,0.90
2023-02-24T06:17:17.096Z,0.70
2023-02-24T06:19:46.981Z,1.20
2023-02-24T06:22:15.550Z,1.47
2023-02-24T06:24:45.297Z,0.63
2023-02-24T06:27:17.863Z,1.07
2023-02-24T06:29:46.351Z,0.83
2023-02-24T06:32:14.848Z,0.97
2023-02-24T06:34:43.170Z,0.87
2023-02-24T06:37:13.920Z,0.80
2023-02-24T06:39:42.288Z,0.87
2023-02-24T06:42:10.948Z,1.40
2023-02-24T06:44:40.535Z,1.27
2023-02-24T06:47:09.493Z,1.00
2023-02-24T06:49:37.986Z,1.00
2023-02-24T06:52:06.924Z,1.17
2023-02-24T06:54:36.747Z,0.70
2023-02-24T06:57:05.326Z,1.27
2023-02-24T06:59:34.245Z,0.73
2023-02-24T07:02:03.521Z,0.73
2023-02-24T07:04:43.512Z,1.33
2023-02-24T07:07:14.131Z,0.97
2023-02-24T07:09:45.506Z,1.40
2023-02-24T07:12:15.576Z,1.00
2023-02-24T07:14:44.096Z,0.50
2023-02-24T07:17:14.964Z,0.77
2023-02-24T07:19:44.113Z,1.33
2023-02-24T07:22:14.743Z,0.90
2023-02-24T07:24:46.563Z,0.70
2023-02-24T07:27:21.987Z,1.40
2023-02-24T07:29:52.775Z,1.07
2023-02-24T07:32:22.346Z,0.80
2023-02-24T07:34:50.926Z,0.70
2023-02-24T07:37:20.646Z,0.63
2023-02-24T07:39:50.633Z,0.80
2023-02-24T07:42:18.926Z,0.97
2023-02-24T07:44:49.145Z,0.80
2023-02-24T07:47:17.820Z,0.90
2023-02-24T07:49:46.291Z,1.03
2023-02-24T07:52:16.087Z,0.70
2023-02-24T07:54:44.519Z,0.80
2023-02-24T07:57:14.747Z,0.80
2023-02-24T07:59:47.793Z,0.80
2023-02-24T08:02:16.532Z,1.00
2023-02-24T08:04:50.548Z,1.37
2023-02-24T08:07:24.270Z,0.67
2023-02-24T08:10:07.257Z,0.90
2023-02-24T08:12:36.987Z,0.67
2023-02-24T08:15:17.578Z,0.53
2023-02-24T08:17:47.358Z,0.77
2023-02-24T08:20:30.115Z,0.50
2023-02-24T08:22:58.563Z,0.40
2023-02-24T08:25:36.176Z,0.40
2023-02-24T08:28:09.503Z,0.87
2023-02-24T08:30:45.657Z,0.63
2023-02-24T08:33:17.420Z,0.50
2023-02-24T08:35:45.875Z,0.30
2023-02-24T08:38:15.476Z,0.50
2023-02-24T08:40:55.239Z,0.60
2023-02-24T08:43:34.787Z,0.60
2023-02-24T08:46:04.823Z,0.37
2023-02-24T08:48:37.352Z,0.80
2023-02-24T08:51:07.423Z,0.53
2023-02-24T08:53:35.729Z,0.60
2023-02-24T08:56:09.837Z,0.57
2023-02-24T08:58:41.094Z,0.47
2023-02-24T09:01:18.603Z,0.60
2023-02-24T09:03:47.605Z,0.43
2023-02-24T09:06:16.918Z,0.93
2023-02-24T09:08:46.133Z,0.60
2023-02-24T09:11:15.023Z,0.20
2023-02-24T09:13:52.015Z,0.53
2023-02-24T09:16:20.553Z,0.70
2023-02-24T09:19:08.975Z,0.70
2023-02-24T09:21:51.217Z,0.50
2023-02-24T09:24:27.248Z,0.67
2023-02-24T09:26:58.527Z,0.40
2023-02-24T09:29:49.443Z,0.73
2023-02-24T09:32:18.016Z,0.33
2023-02-24T09:34:46.426Z,0.33
2023-02-24T09:37:25.217Z,0.40
2023-02-24T09:40:19.748Z,0.30
2023-02-24T09:42:48.128Z,0.50
2023-02-24T09:45:33.009Z,0.30
2023-02-24T09:48:01.824Z,0.37
2023-02-24T09:51:04.320Z,0.57
2023-02-24T09:53:41.602Z,0.40
2023-02-24T09:56:16.080Z,0.40
2023-02-24T09:58:48.189Z,0.70
2023-02-24T10:01:31.115Z,0.40
2023-02-24T10:04:19.570Z,0.40
2023-02-24T10:06:49.802Z,0.30
2023-02-24T10:09:23.732Z,0.20
2023-02-24T10:12:03.961Z,0.40
2023-02-24T10:14:43.782Z,0.27
2023-02-24T10:17:24.927Z,0.50
2023-02-24T10:20:01.128Z,0.40
2023-02-24T10:22:50.539Z,0.50
2023-02-24T10:25:21.624Z,0.40
2023-02-24T10:27:53.178Z,0.47
2023-02-24T10:30:28.200Z,0.30
2023-02-24T10:32:59.052Z,0.60
2023-02-24T10:35:34.041Z,0.50
2023-02-24T10:38:05.364Z,0.33
2023-02-24T10:40:45.167Z,0.57
2023-02-24T10:43:17.893Z,0.30
2023-02-24T10:45:46.718Z,0.40
2023-02-24T10:48:41.389Z,0.40
2023-02-24T10:51:11.872Z,0.40
2023-02-24T10:53:43.314Z,0.60
2023-02-24T10:56:27.117Z,0.47
2023-02-24T10:59:20.602Z,0.40
2023-02-24T11:01:59.230Z,0.30
2023-02-24T11:04:54.307Z,0.30
2023-02-24T11:07:33.692Z,0.50
2023-02-24T11:10:11.205Z,0.40
2023-02-24T11:13:04.364Z,0.57
2023-02-24T11:15:55.555Z,0.20
2023-02-24T11:18:24.603Z,0.20
2023-02-24T11:20:54.804Z,0.40
2023-02-24T11:23:24.456Z,0.27
2023-02-24T11:25:53.538Z,0.50
2023-02-24T11:28:29.696Z,0.37
2023-02-24T11:30:58.771Z,0.40
2023-02-24T11:33:30.115Z,0.40
2023-02-24T11:36:02.595Z,0.30
2023-02-24T11:38:32.528Z,0.30
2023-02-24T11:41:06.361Z,0.47
2023-02-24T11:43:35.895Z,0.60
2023-02-24T11:46:05.784Z,2.93
2023-02-24T11:48:34.388Z,3.00
2023-02-24T11:51:04.604Z,1.83
2023-02-24T11:53:33.985Z,1.57
2023-02-24T11:56:03.628Z,2.23
2023-02-24T11:58:37.573Z,2.17
2023-02-24T12:01:09.354Z,2.20
2023-02-24T12:03:39.095Z,3.70
2023-02-24T12:06:14.115Z,3.90
2023-02-24T12:08:43.236Z,2.87
2023-02-24T12:11:12.820Z,2.83
2023-02-24T12:13:41.465Z,1.67
2023-02-24T12:16:12.506Z,1.87
2023-02-24T12:18:41.445Z,2.73
2023-02-24T12:21:10.838Z,2.53
2023-02-24T12:23:41.725Z,2.20
2023-02-24T12:26:13.537Z,1.47
2023-02-24T12:28:59.948Z,2.07
2023-02-24T12:31:32.165Z,2.17
2023-02-24T12:34:02.998Z,1.57
2023-02-24T12:36:37.932Z,0.93
2023-02-24T12:39:10.264Z,2.00
2023-02-24T12:41:51.000Z,1.40
2023-02-24T12:44:21.581Z,1.10
2023-02-24T12:46:51.355Z,1.00
2023-02-24T12:49:26.180Z,1.27
2023-02-24T12:51:57.907Z,0.90
2023-02-24T12:54:29.418Z,1.13
2023-02-24T12:56:58.690Z,0.97
2023-02-24T12:59:27.567Z,0.90
2023-02-24T13:01:57.116Z,0.97
2023-02-24T13:04:33.373Z,0.70
2023-02-24T13:07:19.613Z,0.70
2023-02-24T13:09:50.015Z,0.70
2023-02-24T13:12:20.130Z,0.93
2023-02-24T13:14:48.439Z,0.90
2023-02-24T13:17:20.174Z,0.70
2023-02-24T13:19:48.566Z,0.77
2023-02-24T13:22:27.465Z,0.73
2023-02-24T13:25:06.390Z,1.27
2023-02-24T13:27:36.065Z,1.00
2023-02-24T13:30:06.845Z,0.70
2023-02-24T13:32:36.450Z,0.73
2023-02-24T13:35:05.530Z,0.70
2023-02-24T13:37:35.559Z,0.70
2023-02-24T13:40:19.095Z,1.40
2023-02-24T13:42:57.631Z,0.90
2023-02-24T13:45:26.389Z,0.80
2023-02-24T13:48:12.691Z,0.40
2023-02-24T13:50:42.699Z,0.57
2023-02-24T13:53:14.584Z,0.67
2023-02-24T13:55:48.564Z,1.00
2023-02-24T13:58:24.582Z,0.63
2023-02-24T14:01:00.251Z,0.90
2023-02-24T14:03:28.770Z,0.50
2023-02-24T14:05:59.190Z,0.90
2023-02-24T14:08:28.239Z,1.20
2023-02-24T14:10:56.859Z,1.10
2023-02-24T14:13:27.906Z,1.03
2023-02-24T14:15:56.422Z,0.97
2023-02-24T14:18:25.223Z,0.80
2023-02-24T14:20:53.962Z,0.73
2023-02-24T14:23:23.810Z,0.77
2023-02-24T14:25:54.273Z,0.83
2023-02-24T14:28:23.790Z,1.00
2023-02-24T14:30:55.536Z,0.87
2023-02-24T14:33:25.894Z,0.70
2023-02-24T14:35:54.183Z,0.90
2023-02-24T14:38:32.949Z,0.57
2023-02-24T14:41:01.241Z,0.67
2023-02-24T14:43:29.569Z,1.57
2023-02-24T14:45:59.343Z,0.77
2023-02-24T14:48:27.968Z,0.83
2023-02-24T14:50:56.755Z,0.70
2023-02-24T14:53:25.133Z,1.33
2023-02-24T14:55:54.606Z,0.80
2023-02-24T14:58:23.687Z,0.73
2023-02-24T15:00:52.734Z,0.87
2023-02-24T15:03:24.436Z,0.53
2023-02-24T15:05:54.160Z,0.57
2023-02-24T15:08:26.596Z,0.80
2023-02-24T15:10:55.349Z,0.83
2023-02-24T15:13:25.197Z,0.43
2023-02-24T15:15:53.445Z,1.17
2023-02-24T15:18:25.152Z,0.40
2023-02-24T15:21:00.876Z,1.47
2023-02-24T15:23:31.162Z,0.40
2023-02-24T15:25:59.644Z,0.50
2023-02-24T15:28:30.953Z,0.57
2023-02-24T15:31:01.452Z,0.37
2023-02-24T15:33:32.812Z,0.70
2023-02-24T15:36:01.414Z,1.13
2023-02-24T15:38:31.410Z,0.57
2023-02-24T15:41:00.003Z,0.60
2023-02-24T15:43:34.596Z,0.40
2023-02-24T15:46:02.878Z,0.73
2023-02-24T15:48:32.671Z,0.40
2023-02-24T15:51:01.715Z,1.07
2023-02-24T15:53:30.064Z,0.50
2023-02-24T15:55:58.584Z,1.07
2023-02-24T15:58:26.918Z,0.77
2023-02-24T16:00:55.223Z,0.60
2023-02-24T16:03:23.698Z,0.60
2023-02-24T16:05:53.355Z,0.67
2023-02-24T16:08:21.718Z,0.33
2023-02-24T16:10:53.581Z,0.70
2023-02-24T16:13:22.413Z,0.40
2023-02-24T16:15:50.736Z,0.67
2023-02-24T16:18:22.360Z,0.50
2023-02-24T16:20:54.333Z,0.43
2023-02-24T16:23:24.629Z,0.63
2023-02-24T16:25:53.681Z,0.63
2023-02-24T16:28:22.419Z,0.50
2023-02-24T16:30:51.173Z,0.30
2023-02-24T16:33:20.827Z,0.30
2023-02-24T16:35:50.195Z,0.50
2023-02-24T16:38:19.489Z,0.60
2023-02-24T16:40:49.564Z,0.53
2023-02-24T16:43:18.144Z,0.37
2023-02-24T16:45:46.859Z,0.40
2023-02-24T16:48:16.424Z,0.50
2023-02-24T16:50:45.073Z,0.60
2023-02-24T16:53:14.488Z,0.30
2023-02-24T16:55:43.142Z,0.50
2023-02-24T16:58:12.905Z,0.30
2023-02-24T17:00:41.325Z,0.30
2023-02-24T17:03:18.127Z,0.80
2023-02-24T17:05:46.475Z,0.50
2023-02-24T17:08:15.229Z,0.20
2023-02-24T17:10:44.080Z,0.40
2023-02-24T17:13:13.976Z,0.50
2023-02-24T17:15:42.279Z,0.87
2023-02-24T17:18:10.724Z,0.10
2023-02-24T17:20:39.732Z,0.30
2023-02-24T17:23:08.124Z,0.73
2023-02-24T17:25:36.665Z,0.77
2023-02-24T17:28:06.338Z,0.27
2023-02-24T17:30:36.545Z,0.50
2023-02-24T17:33:04.925Z,0.40
2023-02-24T17:35:33.286Z,0.50
2023-02-24T17:38:01.663Z,0.30
2023-02-24T17:40:30.247Z,0.50
2023-02-24T17:42:58.673Z,0.60
2023-02-24T17:45:26.933Z,0.63
2023-02-24T17:47:56.586Z,0.40
2023-02-24T17:50:25.228Z,0.50
2023-02-24T17:52:53.559Z,0.47
2023-02-24T17:55:21.839Z,0.60
2023-02-24T17:57:50.152Z,0.50
2023-02-24T18:00:18.961Z,0.30
2023-02-24T18:02:47.396Z,0.40
2023-02-24T18:05:17.387Z,0.20
2023-02-24T18:07:45.724Z,0.30
2023-02-24T18:10:14.024Z,0.40
2023-02-24T18:12:42.678Z,0.50
2023-02-24T18:15:11.631Z,0.40
2023-02-24T18:17:40.094Z,0.40
2023-02-24T18:20:08.736Z,0.43
2023-02-24T18:22:38.449Z,0.47
2023-02-24T18:25:07.493Z,0.70
2023-02-24T18:27:35.905Z,0.40
2023-02-24T18:30:04.170Z,0.40
2023-02-24T18:32:33.192Z,0.10
2023-02-24T18:35:01.711Z,0.43
2023-02-24T18:37:30.056Z,0.73
2023-02-24T18:39:59.764Z,0.83
2023-02-24T18:42:28.048Z,0.20
2023-02-24T18:44:56.375Z,0.40
2023-02-24T18:47:24.821Z,0.30
2023-02-24T18:49:53.164Z,0.60
2023-02-24T18:52:21.534Z,0.50
2023-02-24T18:54:50.026Z,0.23
2023-02-24T18:57:19.663Z,0.30
2023-02-24T18:59:51.140Z,0.50
2023-02-24T19:02:19.543Z,1.57
2023-02-24T19:04:47.901Z,0.40
2023-02-24T19:07:16.354Z,0.80
2023-02-24T19:09:44.639Z,0.60
2023-02-24T19:12:14.851Z,1.07
2023-02-24T19:14:44.560Z,0.57
2023-02-24T19:17:12.907Z,0.80
2023-02-24T19:19:41.244Z,1.53
2023-02-24T19:22:09.847Z,1.40
2023-02-24T19:24:38.135Z,1.27
2023-02-24T19:27:06.570Z,1.63
2023-02-24T19:29:35.233Z,1.50
2023-02-24T19:32:05.057Z,1.57
2023-02-24T19:34:33.426Z,1.83
2023-02-24T19:37:02.084Z,1.63
2023-02-24T19:39:30.400Z,1.13
2023-02-24T19:41:58.689Z,1.73
2023-02-24T19:44:27.004Z,2.30
2023-02-24T19:46:55.283Z,1.97
2023-02-24T19:49:24.976Z,2.20
2023-02-24T19:51:54.956Z,2.07
2023-02-24T19:54:23.500Z,2.07
2023-02-24T19:56:52.436Z,1.77
2023-02-24T19:59:20.909Z,2.70
2023-02-24T20:01:51.696Z,2.40
2023-02-24T20:04:20.331Z,2.53
2023-02-24T20:06:50.219Z,3.40
2023-02-24T20:09:21.409Z,2.30
2023-02-24T20:11:50.450Z,2.10
2023-02-24T20:14:19.721Z,2.13
2023-02-24T20:16:48.305Z,1.93
2023-02-24T20:19:18.366Z,2.33
2023-02-24T20:21:47.421Z,3.50
2023-02-24T20:24:17.496Z,3.10
2023-02-24T20:26:47.318Z,2.87
2023-02-24T20:29:15.821Z,2.97
2023-02-24T20:31:44.334Z,3.00
2023-02-24T20:34:14.691Z,3.13
2023-02-24T20:36:43.810Z,2.57
2023-02-24T20:39:13.318Z,3.50
2023-02-24T20:41:43.295Z,2.87
2023-02-24T20:44:11.728Z,2.40
2023-02-24T20:46:40.071Z,3.43
2023-02-24T20:49:09.431Z,3.17
2023-02-24T20:51:38.159Z,2.30
2023-02-24T20:54:06.506Z,2.30
2023-02-24T20:56:36.710Z,3.27
2023-02-24T20:59:06.686Z,2.60
2023-02-24T21:01:35.163Z,2.63
2023-02-24T21:04:03.980Z,2.20
2023-02-24T21:06:32.413Z,2.20
2023-02-24T21:09:00.838Z,2.90
2023-02-24T21:11:30.615Z,2.10
2023-02-24T21:13:59.140Z,2.27
2023-02-24T21:16:28.904Z,2.53
2023-02-24T21:18:58.947Z,2.43
2023-02-24T21:21:27.354Z,2.27
2023-02-24T21:23:56.667Z,2.20
2023-02-24T21:26:29.407Z,2.60
2023-02-24T21:28:59.208Z,2.23
2023-02-24T21:31:29.032Z,1.93
2023-02-24T21:33:57.630Z,2.60
2023-02-24T21:36:27.950Z,2.13
2023-02-24T21:38:56.843Z,2.57
2023-02-24T21:41:25.275Z,2.37
2023-02-24T21:43:54.752Z,2.33
2023-02-24T21:46:24.933Z,2.20
2023-02-24T21:48:56.452Z,2.43
2023-02-24T21:51:25.814Z,1.80
2023-02-24T21:53:55.336Z,2.50
2023-02-24T21:56:24.366Z,2.10
2023-02-24T21:58:53.940Z,1.83
2023-02-24T22:01:22.744Z,2.40
2023-02-24T22:03:51.213Z,2.03
2023-02-24T22:06:21.242Z,2.07
2023-02-24T22:08:49.795Z,1.77
2023-02-24T22:11:18.334Z,2.20
2023-02-24T22:13:46.907Z,2.27
2023-02-24T22:16:16.552Z,2.03
2023-02-24T22:18:44.912Z,2.47
2023-02-24T22:21:14.103Z,2.80
2023-02-24T22:23:43.776Z,2.10
2023-02-24T22:26:12.609Z,2.37
2023-02-24T22:28:41.414Z,2.00
2023-02-24T22:31:10.006Z,2.00
2023-02-24T22:33:40.971Z,1.97
2023-02-24T22:36:10.560Z,2.07
2023-02-24T22:38:39.011Z,1.30
2023-02-24T22:41:09.322Z,1.87
2023-02-24T22:43:37.815Z,1.83
2023-02-24T22:46:06.780Z,1.50
2023-02-24T22:48:35.527Z,1.67
2023-02-24T22:51:04.484Z,1.83
2023-02-24T22:53:33.226Z,1.40
2023-02-24T22:56:01.506Z,1.80
2023-02-24T22:58:32.320Z,1.30
2023-02-24T23:01:00.869Z,1.77
2023-02-24T23:03:31.034Z,2.70
2023-02-24T23:05:59.805Z,1.30
2023-02-24T23:08:28.272Z,1.93
2023-02-24T23:10:56.641Z,1.50
2023-02-24T23:13:25.114Z,1.27
2023-02-24T23:15:54.741Z,3.13
2023-02-24T23:18:23.064Z,2.47
2023-02-24T23:20:59.784Z,1.30
2023-02-24T23:23:28.146Z,1.60
2023-02-24T23:25:57.170Z,1.70
2023-02-24T23:28:25.951Z,1.60
2023-02-24T23:30:55.901Z,1.30
2023-02-24T23:33:26.325Z,1.60
2023-02-24T23:35:55.049Z,1.60
2023-02-24T23:38:23.390Z,1.50
2023-02-24T23:40:51.905Z,1.33
2023-02-24T23:43:20.172Z,1.53
2023-02-24T23:45:48.505Z,1.77
2023-02-24T23:48:18.223Z,1.70
2023-02-24T23:50:46.980Z,1.53
2023-02-24T23:53:15.278Z,1.77
2023-02-24T23:55:43.572Z,1.33
2023-02-24T23:58:11.849Z,1.63
